This is the latest recevied weather packets stored in our database for station/object KI7JYE. If no packets are shown the sender has not sent any weather packets the latest 10 day(s).
| Time | Temp. | Humidity | Pressure | Rain* | Wind** | Luminosity | Snow |
|---|---|---|---|---|---|---|---|
| 1778029537 | 19.44° C | 67% | 1013.9 hPa | 0 mm | - | 160 W/m² | - |
| 1778029233 | 20° C | 65% | 1014 hPa | 0 mm | - | 151 W/m² | - |
| 1778028930 | 18.33° C | 69% | 1013.9 hPa | 0 mm | - | 230 W/m² | - |
| 1778028626 | 18.33° C | 69% | 1013.9 hPa | 0 mm | - | 179 W/m² | - |
| 1778028324 | 18.33° C | 70% | 1013.9 hPa | 0 mm | - | 147 W/m² | - |
| 1778028020 | 18.33° C | 70% | 1014.1 hPa | 0 mm | - | 145 W/m² | - |
| 1778027716 | 18.89° C | 68% | 1014 hPa | 0 mm | - | 166 W/m² | - |
| 1778027412 | 19.44° C | 67% | 1014 hPa | 0 mm | - | 179 W/m² | - |
| 1778027109 | 18.89° C | 68% | 1014.2 hPa | 0 mm | - | 184 W/m² | - |
| 1778026804 | 18.33° C | 69% | 1014 hPa | 0 mm | - | 182 W/m² | - |
| 1778026501 | 18.89° C | 68% | 1013.9 hPa | 0 mm | - | 172 W/m² | - |
| 1778026198 | 18.89° C | 69% | 1014.4 hPa | 0 mm | - | 165 W/m² | - |
| 1778025895 | 18.89° C | 69% | 1014.1 hPa | 0 mm | - | 163 W/m² | - |
| 1778025592 | 18.89° C | 68% | 1014.1 hPa | 0 mm | - | 182 W/m² | - |
| 1778025291 | 18.89° C | 69% | 1014.3 hPa | 0 mm | - | 213 W/m² | - |
| 1778024987 | 18.33° C | 69% | 1014.1 hPa | 0 mm | - | 225 W/m² | - |
| 1778024685 | 18.89° C | 68% | 1014.5 hPa | 0 mm | - | 244 W/m² | - |
| 1778024381 | 18.89° C | 70% | 1014.3 hPa | 0 mm | - | 230 W/m² | - |
| 1778024079 | 18.89° C | 68% | 1014.6 hPa | 0 mm | - | 224 W/m² | - |
| 1778023776 | 18.89° C | 67% | 1014.6 hPa | 0 mm | - | 208 W/m² | - |
| 1778023474 | 18.89° C | 69% | 1014.9 hPa | 0 mm | - | 261 W/m² | - |
| 1778023171 | 18.33° C | 69% | 1014.5 hPa | 0 mm | - | 279 W/m² | - |
| 1778022868 | 17.78° C | 69% | 1014.4 hPa | 0 mm | - | 261 W/m² | - |
| 1778022567 | 17.78° C | 70% | 1014.6 hPa | 0 mm | - | 292 W/m² | - |
| 1778022264 | 18.89° C | 68% | 1014.5 hPa | 0 mm | - | 266 W/m² | - |
* Rain latest hour (hover to see other rain measurements)
** Current wind speed in m/s (hover to see current wind gust speed)